createdAt,value
2022-11-16T00:00:10.719Z,70.07
2022-11-16T00:02:58.632Z,70.13
2022-11-16T00:05:28.592Z,70.14
2022-11-16T00:07:59.395Z,70.18
2022-11-16T00:10:29.370Z,70.25
2022-11-16T00:12:57.381Z,70.43
2022-11-16T00:15:25.378Z,70.51
2022-11-16T00:17:53.326Z,70.60
2022-11-16T00:20:21.358Z,70.77
2022-11-16T00:22:49.363Z,70.88
2022-11-16T00:25:17.361Z,70.99
2022-11-16T00:27:45.348Z,71.04
2022-11-16T00:30:14.569Z,71.07
2022-11-16T00:32:42.565Z,71.16
2022-11-16T00:35:11.249Z,71.18
2022-11-16T00:37:39.288Z,71.29
2022-11-16T00:40:08.982Z,71.39
2022-11-16T00:42:36.974Z,71.40
2022-11-16T00:45:07.067Z,71.51
2022-11-16T00:47:35.135Z,71.61
2022-11-16T00:50:03.239Z,71.65
2022-11-16T00:52:32.215Z,71.69
2022-11-16T00:55:01.144Z,71.82
2022-11-16T00:57:29.148Z,71.95
2022-11-16T00:59:57.115Z,72.03
2022-11-16T01:02:25.098Z,72.05
2022-11-16T01:04:53.102Z,72.00
2022-11-16T01:07:21.172Z,72.10
2022-11-16T01:09:49.691Z,72.05
2022-11-16T01:12:17.712Z,72.10
2022-11-16T01:14:47.993Z,72.09
2022-11-16T01:17:16.027Z,72.05
2022-11-16T01:19:44.085Z,72.03
2022-11-16T01:22:12.131Z,72.02
2022-11-16T01:24:40.217Z,72.06
2022-11-16T01:27:08.274Z,72.13
2022-11-16T01:29:37.652Z,72.18
2022-11-16T01:32:07.659Z,72.19
2022-11-16T01:34:37.103Z,72.25
2022-11-16T01:37:05.211Z,72.30
2022-11-16T01:39:33.246Z,72.28
2022-11-16T01:42:01.309Z,72.40
2022-11-16T01:44:32.091Z,72.50
2022-11-16T01:47:06.635Z,72.45
2022-11-16T01:49:37.458Z,72.60
2022-11-16T01:52:12.813Z,72.55
2022-11-16T01:54:45.585Z,72.80
2022-11-16T01:57:20.711Z,72.95
2022-11-16T01:59:54.204Z,73.12
2022-11-16T02:02:23.217Z,73.26
2022-11-16T02:04:56.024Z,73.45
2022-11-16T02:07:26.937Z,73.65
2022-11-16T02:10:21.101Z,73.87
2022-11-16T02:13:08.625Z,73.97
2022-11-16T02:15:56.229Z,73.90
2022-11-16T02:18:53.733Z,74.13
2022-11-16T02:21:46.392Z,74.30
2022-11-16T02:24:34.035Z,74.38
2022-11-16T02:27:23.934Z,74.46
2022-11-16T02:29:56.719Z,74.67
2022-11-16T02:32:34.949Z,74.84
2022-11-16T02:35:19.386Z,75.05
2022-11-16T02:37:57.499Z,75.15
2022-11-16T02:40:30.971Z,75.31
2022-11-16T02:43:09.290Z,75.26
2022-11-16T02:45:42.990Z,75.38
2022-11-16T02:48:20.149Z,75.52
2022-11-16T02:50:52.896Z,75.68
2022-11-16T02:53:25.230Z,75.87
2022-11-16T02:55:53.323Z,76.04
2022-11-16T02:58:25.360Z,76.14
2022-11-16T03:01:07.805Z,76.27
2022-11-16T03:03:47.057Z,76.39
2022-11-16T03:06:27.374Z,76.32
2022-11-16T03:09:03.790Z,76.30
2022-11-16T03:12:00.012Z,76.29
2022-11-16T03:15:02.271Z,76.44
2022-11-16T03:17:42.182Z,76.54
2022-11-16T03:20:27.106Z,76.58
2022-11-16T03:23:02.394Z,76.63
2022-11-16T03:25:40.176Z,76.73
2022-11-16T03:28:36.898Z,76.83
2022-11-16T03:31:14.603Z,76.87
2022-11-16T03:33:52.947Z,76.84
2022-11-16T03:36:31.535Z,76.82
2022-11-16T03:39:05.338Z,76.86
2022-11-16T03:41:38.203Z,76.88
2022-11-16T03:44:09.017Z,76.87
2022-11-16T03:46:38.740Z,76.93
2022-11-16T03:49:07.575Z,77.00
2022-11-16T03:51:36.265Z,77.06
2022-11-16T03:54:05.303Z,77.12
2022-11-16T03:56:33.071Z,77.18
2022-11-16T03:59:00.976Z,77.29
2022-11-16T04:01:29.179Z,77.38
2022-11-16T04:03:57.359Z,77.45
2022-11-16T04:06:44.200Z,77.51
2022-11-16T04:09:24.027Z,77.54
2022-11-16T04:12:10.468Z,77.53
2022-11-16T04:14:58.185Z,77.51
2022-11-16T04:17:46.692Z,77.50
2022-11-16T04:20:34.944Z,77.55
2022-11-16T04:23:31.207Z,77.72
2022-11-16T04:26:00.657Z,77.72
2022-11-16T04:28:32.072Z,77.68
2022-11-16T04:31:23.406Z,77.70
2022-11-16T04:34:11.492Z,77.75
2022-11-16T04:36:58.083Z,77.75
2022-11-16T04:39:25.815Z,77.77
2022-11-16T04:42:12.169Z,77.53
2022-11-16T04:44:58.926Z,77.61
2022-11-16T04:47:27.750Z,77.49
2022-11-16T04:49:55.735Z,77.42
2022-11-16T04:52:23.668Z,77.65
2022-11-16T04:54:51.840Z,77.73
2022-11-16T04:57:19.552Z,77.91
2022-11-16T04:59:47.339Z,78.27
2022-11-16T05:02:16.519Z,78.52
2022-11-16T05:04:45.464Z,78.72
2022-11-16T05:07:15.551Z,78.86
2022-11-16T05:09:47.813Z,79.00
2022-11-16T05:12:26.114Z,79.12
2022-11-16T05:14:56.020Z,79.26
2022-11-16T05:17:27.230Z,79.36
2022-11-16T05:20:13.858Z,79.47
2022-11-16T05:22:43.643Z,79.57
2022-11-16T05:25:12.726Z,79.65
2022-11-16T05:27:40.556Z,79.73
2022-11-16T05:30:11.363Z,79.81
2022-11-16T05:32:39.101Z,79.81
2022-11-16T05:35:08.437Z,79.86
2022-11-16T05:37:36.500Z,79.92
2022-11-16T05:40:05.825Z,79.96
2022-11-16T05:42:33.558Z,79.98
2022-11-16T05:45:02.674Z,80.08
2022-11-16T05:47:30.454Z,80.13
2022-11-16T05:49:58.181Z,80.20
2022-11-16T05:52:26.170Z,80.25
2022-11-16T05:54:54.145Z,80.37
2022-11-16T05:57:22.132Z,80.43
2022-11-16T05:59:51.155Z,80.49
2022-11-16T06:02:19.147Z,80.58
2022-11-16T06:04:48.306Z,80.58
2022-11-16T06:07:16.078Z,80.65
2022-11-16T06:09:45.218Z,80.76
2022-11-16T06:12:14.890Z,80.79
2022-11-16T06:14:43.106Z,80.84
2022-11-16T06:17:14.667Z,80.88
2022-11-16T06:19:43.695Z,80.99
2022-11-16T06:22:11.380Z,81.08
2022-11-16T06:24:41.778Z,81.14
2022-11-16T06:27:09.709Z,81.25
2022-11-16T06:29:37.437Z,81.37
2022-11-16T06:32:06.379Z,81.39
2022-11-16T06:34:34.317Z,81.48
2022-11-16T06:37:02.236Z,81.62
2022-11-16T06:39:30.180Z,81.68
2022-11-16T06:41:57.919Z,81.72
2022-11-16T06:44:26.228Z,81.83
2022-11-16T06:46:53.952Z,81.86
2022-11-16T06:49:21.870Z,81.95
2022-11-16T06:51:49.584Z,82.06
2022-11-16T06:54:17.494Z,82.14
2022-11-16T06:56:45.434Z,82.13
2022-11-16T06:59:13.355Z,82.17
2022-11-16T07:01:43.500Z,82.22
2022-11-16T07:04:12.790Z,82.37
2022-11-16T07:06:41.695Z,82.51
2022-11-16T07:09:11.254Z,82.67
2022-11-16T07:11:39.173Z,82.77
2022-11-16T07:14:08.758Z,82.78
2022-11-16T07:16:38.335Z,82.91
2022-11-16T07:19:07.945Z,82.91
2022-11-16T07:21:38.833Z,83.00
2022-11-16T07:24:08.590Z,83.07
2022-11-16T07:26:36.334Z,83.11
2022-11-16T07:29:04.149Z,83.15
2022-11-16T07:31:33.723Z,83.13
2022-11-16T07:34:03.230Z,83.08
2022-11-16T07:36:30.953Z,83.25
2022-11-16T07:38:58.691Z,83.37
2022-11-16T07:41:26.641Z,83.30
2022-11-16T07:43:54.519Z,83.35
2022-11-16T07:49:16.651Z,83.53
2022-11-16T07:51:46.558Z,83.58
2022-11-16T07:54:16.602Z,83.67
2022-11-16T07:56:44.556Z,83.62
2022-11-16T07:59:12.582Z,83.62
2022-11-16T08:01:40.479Z,83.69
2022-11-16T08:04:10.200Z,83.74
2022-11-16T08:06:38.229Z,83.75
2022-11-16T08:09:06.167Z,83.79
2022-11-16T08:11:34.128Z,83.78
2022-11-16T08:14:02.313Z,83.87
2022-11-16T08:16:30.151Z,83.97
2022-11-16T08:18:57.848Z,83.94
2022-11-16T08:21:25.586Z,83.95
2022-11-16T08:23:58.668Z,83.99
2022-11-16T08:26:28.785Z,84.03
2022-11-16T08:28:58.226Z,84.04
2022-11-16T08:31:29.993Z,84.14
2022-11-16T08:34:01.476Z,84.14
2022-11-16T08:36:30.978Z,84.13
2022-11-16T08:38:58.830Z,84.00
2022-11-16T08:41:28.346Z,84.00
2022-11-16T08:44:01.045Z,83.99
2022-11-16T08:46:30.568Z,83.98
2022-11-16T08:48:59.873Z,83.98
2022-11-16T08:51:27.837Z,83.99
2022-11-16T08:54:01.739Z,84.00
2022-11-16T08:56:31.418Z,84.05
2022-11-16T08:59:01.298Z,84.10
2022-11-16T09:01:32.583Z,84.02
2022-11-16T09:04:02.287Z,84.02
2022-11-16T09:06:30.390Z,84.15
2022-11-16T09:08:58.490Z,84.20
2022-11-16T09:11:28.243Z,84.30
2022-11-16T09:13:59.043Z,84.43
2022-11-16T09:16:29.712Z,84.46
2022-11-16T09:18:59.424Z,84.49
2022-11-16T09:21:30.363Z,84.56
2022-11-16T09:24:00.081Z,84.45
2022-11-16T09:26:28.019Z,84.43
2022-11-16T09:28:59.973Z,84.48
2022-11-16T09:31:35.886Z,84.54
2022-11-16T09:34:04.087Z,84.56
2022-11-16T09:36:31.851Z,84.49
2022-11-16T09:39:29.035Z,84.57
2022-11-16T09:42:18.205Z,84.66
2022-11-16T09:44:52.132Z,84.73
2022-11-16T09:47:24.965Z,84.74
2022-11-16T09:50:02.695Z,84.82
2022-11-16T09:53:02.344Z,84.91
2022-11-16T09:55:52.751Z,84.97
2022-11-16T09:58:36.448Z,85.03
2022-11-16T10:01:21.452Z,85.09
2022-11-16T10:03:55.924Z,85.15
2022-11-16T10:06:38.128Z,85.16
2022-11-16T10:09:11.151Z,85.18
2022-11-16T10:11:45.735Z,85.18
2022-11-16T10:14:22.546Z,85.15
2022-11-16T10:16:57.279Z,85.09
2022-11-16T10:19:44.143Z,85.13
2022-11-16T10:23:06.342Z,85.17
2022-11-16T10:25:46.724Z,85.11
2022-11-16T10:28:30.553Z,85.11
2022-11-16T10:31:05.010Z,85.12
2022-11-16T10:33:37.303Z,85.12
2022-11-16T10:36:16.513Z,84.99
2022-11-16T10:38:46.065Z,85.01
2022-11-16T10:41:13.693Z,84.94
2022-11-16T10:43:44.896Z,84.95
2022-11-16T10:46:40.028Z,84.92
2022-11-16T10:50:02.488Z,84.83
2022-11-16T10:52:30.294Z,84.92
2022-11-16T10:54:58.283Z,85.00
2022-11-16T10:57:57.877Z,85.07
2022-11-16T11:00:41.334Z,85.05
2022-11-16T11:03:12.013Z,85.06
2022-11-16T11:05:55.311Z,85.04
2022-11-16T11:08:30.912Z,85.09
2022-11-16T11:11:25.398Z,85.09
2022-11-16T11:14:14.258Z,85.07
2022-11-16T11:16:44.184Z,85.08
2022-11-16T11:19:29.904Z,85.11
2022-11-16T11:22:01.967Z,85.11
2022-11-16T11:24:47.243Z,85.14
2022-11-16T11:27:37.020Z,85.23
2022-11-16T11:30:20.761Z,85.27
2022-11-16T11:32:54.602Z,85.31
2022-11-16T11:35:31.429Z,85.33
2022-11-16T11:38:07.980Z,85.38
2022-11-16T11:40:39.701Z,85.38
2022-11-16T11:43:24.158Z,85.44
2022-11-16T11:46:07.040Z,85.51
2022-11-16T11:48:49.654Z,85.58
2022-11-16T11:51:27.745Z,85.59
2022-11-16T11:54:00.904Z,85.48
2022-11-16T11:56:34.268Z,85.54
2022-11-16T11:59:05.183Z,85.64
2022-11-16T12:01:35.901Z,85.62
2022-11-16T12:04:23.402Z,85.54
2022-11-16T12:07:23.649Z,85.52
2022-11-16T12:10:16.841Z,85.51
2022-11-16T12:13:02.098Z,85.50
2022-11-16T12:15:56.383Z,85.47
2022-11-16T12:18:54.765Z,85.43
2022-11-16T12:22:07.033Z,85.45
2022-11-16T12:25:00.026Z,85.36
2022-11-16T12:27:37.108Z,85.37
2022-11-16T12:30:11.838Z,85.38
2022-11-16T12:33:10.411Z,85.41
2022-11-16T12:35:41.436Z,85.36
2022-11-16T12:38:36.762Z,85.32
2022-11-16T12:41:48.876Z,85.28
2022-11-16T12:44:44.186Z,85.37
2022-11-16T12:47:32.558Z,85.43
2022-11-16T12:50:29.455Z,85.42
2022-11-16T12:53:22.552Z,85.48
2022-11-16T12:56:05.755Z,85.48
2022-11-16T12:58:55.520Z,85.47
2022-11-16T13:01:38.334Z,85.41
2022-11-16T13:04:17.069Z,85.29
2022-11-16T13:07:11.593Z,85.32
2022-11-16T13:09:49.270Z,85.19
2022-11-16T13:12:23.522Z,85.08
2022-11-16T13:14:56.429Z,85.19
2022-11-16T13:17:40.717Z,85.27
2022-11-16T13:20:20.960Z,85.17
2022-11-16T13:23:05.121Z,85.24
2022-11-16T13:26:02.786Z,85.30
2022-11-16T13:28:37.293Z,85.33
2022-11-16T13:31:29.102Z,85.32
2022-11-16T13:34:03.284Z,85.31
2022-11-16T13:36:38.999Z,85.29
2022-11-16T13:39:44.164Z,85.44
2022-11-16T13:42:15.002Z,85.49
2022-11-16T13:44:50.284Z,85.49
2022-11-16T13:47:28.386Z,85.47
2022-11-16T13:50:03.467Z,85.43
2022-11-16T13:54:03.792Z,85.47
2022-11-16T13:55:57.898Z,85.47
2022-11-16T13:58:29.493Z,85.30
2022-11-16T14:01:03.616Z,85.33
2022-11-16T14:03:39.790Z,85.35
2022-11-16T14:06:30.259Z,85.36
2022-11-16T14:09:00.610Z,85.49
2022-11-16T14:11:42.096Z,85.49
2022-11-16T14:14:13.622Z,85.33
2022-11-16T14:16:51.937Z,85.39
2022-11-16T14:19:49.070Z,85.45
2022-11-16T14:22:48.918Z,85.33
2022-11-16T14:25:38.096Z,85.34
2022-11-16T14:28:25.165Z,85.43
2022-11-16T14:31:31.060Z,85.47
2022-11-16T14:34:01.490Z,85.47
2022-11-16T14:36:44.908Z,85.34
2022-11-16T14:39:44.227Z,85.43
2022-11-16T14:42:23.354Z,85.60
2022-11-16T14:44:59.836Z,85.52
2022-11-16T14:47:33.811Z,85.54
2022-11-16T14:50:01.810Z,85.55
2022-11-16T14:52:36.876Z,85.67
2022-11-16T14:55:09.732Z,85.68
2022-11-16T14:57:37.719Z,85.71
2022-11-16T15:00:22.791Z,85.67
2022-11-16T15:03:00.921Z,85.74
2022-11-16T15:05:37.948Z,85.63
2022-11-16T15:08:24.858Z,85.59
2022-11-16T15:10:54.677Z,85.79
2022-11-16T15:13:26.154Z,85.76
2022-11-16T15:16:14.673Z,85.77
2022-11-16T15:19:02.782Z,85.69
2022-11-16T15:21:30.802Z,85.76
2022-11-16T15:26:46.560Z,85.75
2022-11-16T15:29:22.781Z,85.65
2022-11-16T15:31:52.657Z,85.71
2022-11-16T15:34:22.369Z,85.74
2022-11-16T15:36:50.279Z,85.73
2022-11-16T15:39:24.383Z,85.74
2022-11-16T15:42:00.440Z,85.80
2022-11-16T15:44:34.023Z,85.69
2022-11-16T15:47:04.532Z,85.71
2022-11-16T15:49:51.496Z,85.69
2022-11-16T15:52:51.031Z,85.73
2022-11-16T15:55:35.916Z,85.77
2022-11-16T15:58:15.060Z,85.69
2022-11-16T16:00:48.510Z,85.64
2022-11-16T16:03:28.297Z,85.62
2022-11-16T16:05:58.263Z,85.60
2022-11-16T16:08:32.393Z,85.65
2022-11-16T16:11:28.763Z,85.66
2022-11-16T16:14:03.678Z,85.66
2022-11-16T16:16:41.500Z,85.58
2022-11-16T16:19:37.768Z,85.54
2022-11-16T16:22:23.300Z,85.59
2022-11-16T16:24:51.099Z,85.58
2022-11-16T16:27:26.800Z,85.49
2022-11-16T16:29:58.349Z,85.55
2022-11-16T16:32:30.418Z,85.54
2022-11-16T16:35:02.376Z,85.58
2022-11-16T16:37:33.810Z,85.52
2022-11-16T16:40:03.426Z,85.56
2022-11-16T16:42:31.426Z,85.52
2022-11-16T16:45:02.325Z,85.56
2022-11-16T16:47:32.910Z,85.68
2022-11-16T16:50:00.974Z,85.67
2022-11-16T16:52:30.411Z,85.74
2022-11-16T16:54:59.951Z,85.59
2022-11-16T16:57:27.690Z,85.60
2022-11-16T16:59:55.560Z,85.64
2022-11-16T17:02:27.357Z,85.72
2022-11-16T17:04:55.619Z,85.70
2022-11-16T17:07:23.866Z,85.71
2022-11-16T17:09:53.189Z,85.81
2022-11-16T17:12:20.934Z,85.82
2022-11-16T17:14:53.783Z,85.89
2022-11-16T17:17:27.157Z,85.90
2022-11-16T17:19:55.107Z,85.95
2022-11-16T17:22:23.177Z,85.91
2022-11-16T17:24:51.212Z,85.88
2022-11-16T17:27:19.308Z,85.91
2022-11-16T17:29:47.023Z,85.81
2022-11-16T17:32:17.798Z,85.74
2022-11-16T17:34:45.515Z,85.68
2022-11-16T17:37:15.553Z,85.52
2022-11-16T17:39:43.249Z,85.42
2022-11-16T17:42:11.208Z,85.39
2022-11-16T17:44:39.150Z,85.36
2022-11-16T17:47:09.239Z,85.41
2022-11-16T17:49:37.212Z,85.34
2022-11-16T17:52:05.160Z,85.29
2022-11-16T17:54:33.196Z,85.35
2022-11-16T17:57:00.990Z,85.41
2022-11-16T17:59:30.023Z,85.39
2022-11-16T18:01:58.331Z,85.39
2022-11-16T18:04:26.128Z,85.37
2022-11-16T18:06:54.365Z,85.41
2022-11-16T18:09:25.908Z,85.28
2022-11-16T18:11:56.334Z,85.32
2022-11-16T18:14:24.334Z,85.35
2022-11-16T18:16:52.300Z,85.36
2022-11-16T18:19:22.126Z,85.30
2022-11-16T18:21:50.209Z,85.22
2022-11-16T18:24:18.088Z,85.20
2022-11-16T18:26:47.586Z,85.15
2022-11-16T18:29:20.266Z,85.08
2022-11-16T18:31:48.326Z,85.06
2022-11-16T18:34:18.541Z,85.07
2022-11-16T18:36:50.081Z,85.08
2022-11-16T18:39:19.707Z,85.19
2022-11-16T18:41:54.548Z,85.33
2022-11-16T18:44:23.145Z,85.41
2022-11-16T18:46:51.107Z,85.43
2022-11-16T18:49:18.915Z,85.45
2022-11-16T18:51:46.647Z,85.43
2022-11-16T18:54:14.431Z,85.36
2022-11-16T18:56:42.120Z,85.41
2022-11-16T18:59:10.106Z,85.40
2022-11-16T19:01:38.013Z,85.36
2022-11-16T19:04:07.935Z,85.40
2022-11-16T19:06:35.813Z,85.43
2022-11-16T19:09:07.916Z,85.45
2022-11-16T19:11:37.830Z,85.40
2022-11-16T19:14:08.259Z,85.43
2022-11-16T19:16:43.397Z,85.51
2022-11-16T19:19:16.715Z,85.48
2022-11-16T19:21:44.657Z,85.48
2022-11-16T19:24:12.436Z,85.47
2022-11-16T19:26:40.414Z,85.44
2022-11-16T19:29:10.035Z,85.41
2022-11-16T19:31:37.918Z,85.38
2022-11-16T19:34:13.098Z,85.41
2022-11-16T19:36:40.945Z,85.45
2022-11-16T19:39:10.573Z,85.40
2022-11-16T19:41:38.491Z,85.49
2022-11-16T19:44:06.261Z,85.61
2022-11-16T19:46:34.631Z,85.68
2022-11-16T19:49:04.614Z,85.68
2022-11-16T19:51:34.657Z,85.71
2022-11-16T19:54:03.343Z,85.69
2022-11-16T19:56:33.472Z,85.68
2022-11-16T19:59:01.758Z,85.70
2022-11-16T20:01:32.987Z,85.72
2022-11-16T20:04:03.692Z,85.72
2022-11-16T20:06:35.199Z,85.74
2022-11-16T20:09:16.313Z,85.76
2022-11-16T20:11:44.118Z,85.75
2022-11-16T20:14:12.142Z,85.79
2022-11-16T20:16:46.379Z,85.75
2022-11-16T20:19:16.292Z,85.76
2022-11-16T20:21:45.104Z,85.75
2022-11-16T20:24:16.465Z,85.71
2022-11-16T20:26:48.132Z,85.80
2022-11-16T20:29:19.263Z,85.81
2022-11-16T20:31:49.638Z,85.84
2022-11-16T20:34:23.771Z,85.86
2022-11-16T20:36:51.555Z,85.90
2022-11-16T20:39:21.426Z,85.92
2022-11-16T20:41:51.209Z,85.87
2022-11-16T20:44:22.538Z,85.99
2022-11-16T20:46:52.745Z,85.90
2022-11-16T20:49:21.129Z,85.84
2022-11-16T20:51:52.372Z,85.79
2022-11-16T20:54:20.148Z,85.80
2022-11-16T20:56:52.575Z,85.79
2022-11-16T20:59:20.503Z,85.81
2022-11-16T21:01:54.082Z,85.83
2022-11-16T21:04:21.974Z,85.85
2022-11-16T21:06:49.826Z,85.87
2022-11-16T21:09:24.111Z,85.89
2022-11-16T21:12:10.591Z,85.93
2022-11-16T21:14:38.449Z,85.91
2022-11-16T21:17:06.479Z,85.89
2022-11-16T21:19:34.290Z,85.97
2022-11-16T21:22:02.183Z,86.00
2022-11-16T21:24:32.433Z,85.93
2022-11-16T21:27:00.549Z,85.91
2022-11-16T21:29:28.690Z,85.92
2022-11-16T21:31:56.411Z,85.98
2022-11-16T21:34:26.284Z,85.95
2022-11-16T21:36:54.056Z,85.99
2022-11-16T21:39:21.876Z,86.01
2022-11-16T21:41:49.586Z,86.02
2022-11-16T21:44:17.517Z,86.03
2022-11-16T21:46:45.247Z,86.02
2022-11-16T21:49:13.060Z,86.00
2022-11-16T21:51:40.791Z,86.02
2022-11-16T21:54:08.559Z,85.93
2022-11-16T21:56:36.305Z,85.94
2022-11-16T21:59:04.045Z,85.93
2022-11-16T22:01:51.821Z,85.89
2022-11-16T22:04:38.479Z,85.90
2022-11-16T22:07:25.048Z,85.87
2022-11-16T22:09:54.138Z,85.91
2022-11-16T22:12:22.133Z,85.91
2022-11-16T22:14:50.134Z,85.89
2022-11-16T22:17:18.328Z,85.85
2022-11-16T22:19:46.143Z,85.80
2022-11-16T22:22:14.092Z,85.80
2022-11-16T22:24:41.934Z,85.76
2022-11-16T22:27:09.812Z,85.77
2022-11-16T22:29:37.631Z,85.76
2022-11-16T22:32:05.705Z,85.74
2022-11-16T22:34:33.519Z,85.73
2022-11-16T22:37:01.412Z,85.70
2022-11-16T22:39:29.336Z,85.71
2022-11-16T22:41:57.237Z,85.74
2022-11-16T22:44:25.062Z,85.79
2022-11-16T22:46:52.900Z,85.83
2022-11-16T22:49:20.980Z,85.84
2022-11-16T22:51:48.753Z,85.85
2022-11-16T22:54:18.453Z,85.79
2022-11-16T22:56:46.301Z,85.76
2022-11-16T22:59:16.097Z,85.79
2022-11-16T23:01:43.904Z,85.86
2022-11-16T23:04:11.817Z,85.87
2022-11-16T23:06:39.892Z,85.92
2022-11-16T23:09:07.696Z,85.90
2022-11-16T23:11:54.597Z,85.89
2022-11-16T23:14:41.256Z,85.86
2022-11-16T23:17:09.343Z,85.81
2022-11-16T23:19:55.801Z,85.90
2022-11-16T23:22:42.536Z,85.88
2022-11-16T23:25:32.476Z,85.90
2022-11-16T23:28:17.831Z,86.01
2022-11-16T23:30:45.928Z,86.15
2022-11-16T23:33:15.610Z,86.19
2022-11-16T23:35:43.616Z,86.23
2022-11-16T23:38:11.633Z,86.24
2022-11-16T23:40:42.054Z,86.25
2022-11-16T23:43:31.251Z,86.20
2022-11-16T23:45:59.209Z,86.23
2022-11-16T23:48:27.192Z,86.26
2022-11-16T23:50:55.180Z,86.27
2022-11-16T23:53:23.277Z,86.27
2022-11-16T23:55:52.929Z,86.29
2022-11-16T23:58:20.667Z,86.27
